Time;durP1;ratioP1;P1;durP2;ratioP2;P2;SDS_P1;SDS_P2;PMS_P1;PMS_P2;Temp;Humidity;BMP_temperature;BMP_pressure;BME280_temperature;BME280_humidity;BME280_pressure;Samples;Min_cycle;Max_cycle;Signal;HPM_P1;HPM_P2
2023/11/15 00:00:30;;;;;;;;;;;;;;;;;;5072626;28;20368;-64
2023/11/15 00:02:56;;;;;;;;;;;;;;;;;;5074602;28;19913;-64
2023/11/15 00:05:22;;;;;;;;;;;;;;;;;;5074487;28;19912;-64
2023/11/15 00:07:48;;;;;;;;;;;;;;;;;;5072992;28;20007;-64
2023/11/15 00:10:14;;;;;;;;;;;;;;;;;;5072606;28;19992;-64
2023/11/15 00:12:40;;;;;;;;;;;;;;;;;;5070002;28;20365;-64
2023/11/15 00:15:06;;;;;;;;;;;;;;;;;;5070239;28;19935;-64
2023/11/15 00:17:32;;;;;;;;;;;;;;;;;;5073038;28;19912;-64
2023/11/15 00:19:59;;;;;;;;;;;;;;;;;;5073754;28;19912;-64
2023/11/15 00:22:25;;;;;;;;;;;;;;;;;;5073273;28;19912;-64
2023/11/15 00:24:51;;;;;;;;;;;;;;;;;;5073240;28;19928;-61
2023/11/15 00:27:17;;;;;;;;;;;;;;;;;;5073215;28;19928;-62
2023/11/15 00:29:43;;;;;;;;;;;;;;;;;;5071331;28;19993;-60
2023/11/15 00:32:10;;;;;;;;;;;;;;;;;;5076180;28;19919;-60
2023/11/15 00:34:36;;;;;;;;;;;;;;;;;;5078162;28;19919;-64
2023/11/15 00:37:02;;;;;;;;;;;;;;;;;;5073224;28;19916;-64
2023/11/15 00:39:28;;;;;;;;;;;;;;;;;;5073316;28;19919;-64
2023/11/15 00:41:54;;;;;;;;;;;;;;;;;;5072046;28;19942;-64
2023/11/15 00:44:20;;;;;;;;;;;;;;;;;;5072058;28;20003;-64
2023/11/15 00:46:45;;;;;;;;;;;;;;;;;;5072969;28;20287;-64
2023/11/15 00:49:11;;;;;;;;;;;;;;;;;;5069052;28;19948;-64
2023/11/15 00:51:37;;;;;;;;;;;;;;;;;;5062512;28;19912;-64
2023/11/15 00:54:03;;;;;;;;;;;;;;;;;;5072196;28;20015;-64
2023/11/15 00:56:29;;;;;;;;;;;;;;;;;;5067549;28;19921;-64
2023/11/15 00:58:56;;;;;;;;;;;;;;;;;;5071389;28;19924;-64
2023/11/15 01:01:25;;;;;;;;;;;;;;;;;;5068999;28;20372;-64
2023/11/15 01:03:58;;;;;;;;;;;;;;;;;;5083335;28;20284;-64
2023/11/15 01:06:24;;;;;;;;;;;;;;;;;;5072227;28;20012;-64
2023/11/15 01:08:50;;;;;;;;;;;;;;;;;;5059819;28;20365;-64
2023/11/15 01:11:16;;;;;;;;;;;;;;;;;;5072456;28;20006;-63
2023/11/15 01:13:42;;;;;;;;;;;;;;;;;;5073388;28;19912;-64
2023/11/15 01:16:07;;;;;;;;;;;;;;;;;;5067524;28;20052;-64
2023/11/15 01:18:33;;;;;;;;;;;;;;;;;;5062823;28;19920;-64
2023/11/15 01:20:59;;;;;;;;;;;;;;;;;;5071141;28;19959;-63
2023/11/15 01:23:25;;;;;;;;;;;;;;;;;;5071538;28;19956;-64
2023/11/15 01:25:51;;;;;;;;;;;;;;;;;;5071205;28;19975;-63
2023/11/15 01:28:17;;;;;;;;;;;;;;;;;;5073187;28;19908;-64
2023/11/15 01:30:43;;;;;;;;;;;;;;;;;;5069842;28;20016;-64
2023/11/15 01:33:09;;;;;;;;;;;;;;;;;;5055542;28;19996;-61
2023/11/15 01:35:36;;;;;;;;;;;;;;;;;;5072158;28;19920;-61
2023/11/15 01:38:02;;;;;;;;;;;;;;;;;;5072572;28;20369;-61
2023/11/15 01:40:33;;;;;;;;;;;;;;;;;;5072239;28;19935;-61
2023/11/15 01:42:59;;;;;;;;;;;;;;;;;;5071870;28;19917;-64
2023/11/15 01:45:25;;;;;;;;;;;;;;;;;;5071180;28;19916;-64
2023/11/15 01:47:51;;;;;;;;;;;;;;;;;;5071693;28;19995;-64
2023/11/15 01:50:17;;;;;;;;;;;;;;;;;;5071460;28;19921;-64
2023/11/15 01:52:43;;;;;;;;;;;;;;;;;;5071828;28;19920;-65
2023/11/15 01:55:09;;;;;;;;;;;;;;;;;;5071001;28;21723;-65
2023/11/15 01:57:35;;;;;;;;;;;;;;;;;;5072549;28;20015;-65
2023/11/15 02:00:01;;;;;;;;;;;;;;;;;;5079763;28;19920;-65
2023/11/15 02:02:27;;;;;;;;;;;;;;;;;;5066437;28;19944;-64
2023/11/15 02:04:53;;;;;;;;;;;;;;;;;;5069807;28;20384;-65
2023/11/15 02:07:19;;;;;;;;;;;;;;;;;;5070120;28;19965;-65
2023/11/15 02:09:45;;;;;;;;;;;;;;;;;;5071210;28;19925;-64
2023/11/15 02:12:11;;;;;;;;;;;;;;;;;;5072295;28;19919;-65
2023/11/15 02:14:37;;;;;;;;;;;;;;;;;;5071457;28;19912;-65
2023/11/15 02:17:04;;;;;;;;;;;;;;;;;;5070812;28;19919;-65
2023/11/15 02:19:30;;;;;;;;;;;;;;;;;;5060440;28;19959;-65
2023/11/15 02:21:56;;;;;;;;;;;;;;;;;;5068297;28;20309;-65
2023/11/15 02:24:22;;;;;;;;;;;;;;;;;;5071091;28;20007;-65
2023/11/15 02:26:48;;;;;;;;;;;;;;;;;;5070186;28;20048;-65
2023/11/15 02:29:14;;;;;;;;;;;;;;;;;;5064466;28;19967;-65
2023/11/15 02:31:40;;;;;;;;;;;;;;;;;;5063709;28;19959;-65
2023/11/15 02:34:06;;;;;;;;;;;;;;;;;;5064228;28;19948;-65
2023/11/15 02:36:33;;;;;;;;;;;;;;;;;;5071276;28;20005;-65
2023/11/15 02:38:59;;;;;;;;;;;;;;;;;;5068109;28;19966;-65
2023/11/15 02:41:25;;;;;;;;;;;;;;;;;;5072279;28;19959;-65
2023/11/15 02:43:51;;;;;;;;;;;;;;;;;;5071758;28;19967;-59
2023/11/15 02:46:17;;;;;;;;;;;;;;;;;;5069761;28;20058;-62
2023/11/15 02:48:43;;;;;;;;;;;;;;;;;;5067091;28;19962;-62
2023/11/15 02:51:08;;;;;;;;;;;;;;;;;;5071130;28;19948;-61
2023/11/15 02:53:34;;;;;;;;;;;;;;;;;;5070501;28;20782;-61
2023/11/15 02:56:00;;;;;;;;;;;;;;;;;;5070699;28;19916;-61
2023/11/15 02:58:27;;;;;;;;;;;;;;;;;;5071090;28;19966;-61
2023/11/15 03:00:53;;;;;;;;;;;;;;;;;;5072244;28;20364;-61
2023/11/15 03:03:19;;;;;;;;;;;;;;;;;;5074816;28;19999;-61
2023/11/15 03:05:46;;;;;;;;;;;;;;;;;;5069383;28;19920;-61
2023/11/15 03:08:12;;;;;;;;;;;;;;;;;;5072554;28;19966;-61
2023/11/15 03:10:38;;;;;;;;;;;;;;;;;;5075023;28;19999;-63
2023/11/15 03:13:04;;;;;;;;;;;;;;;;;;5071894;28;19920;-61
2023/11/15 03:15:30;;;;;;;;;;;;;;;;;;5072877;28;20524;-63
2023/11/15 03:17:56;;;;;;;;;;;;;;;;;;5067696;28;20387;-62
2023/11/15 03:20:23;;;;;;;;;;;;;;;;;;5072831;28;19916;-61
2023/11/15 03:22:49;;;;;;;;;;;;;;;;;;5075225;28;20011;-61
2023/11/15 03:25:16;;;;;;;;;;;;;;;;;;5074417;28;19995;-61
2023/11/15 03:27:42;;;;;;;;;;;;;;;;;;5072638;28;19924;-61
2023/11/15 03:30:08;;;;;;;;;;;;;;;;;;5075254;28;19912;-61
2023/11/15 03:32:34;;;;;;;;;;;;;;;;;;5074000;28;19965;-61
2023/11/15 03:35:00;;;;;;;;;;;;;;;;;;5073761;28;20284;-61
2023/11/15 03:37:26;;;;;;;;;;;;;;;;;;5069483;28;19960;-61
2023/11/15 03:39:52;;;;;;;;;;;;;;;;;;5075395;28;19962;-62
2023/11/15 03:42:18;;;;;;;;;;;;;;;;;;5063072;28;19920;-61
2023/11/15 03:44:44;;;;;;;;;;;;;;;;;;5055379;28;19952;-61
2023/11/15 03:47:11;;;;;;;;;;;;;;;;;;5069401;28;20291;-61
2023/11/15 03:49:36;;;;;;;;;;;;;;;;;;5077142;28;19921;-61
2023/11/15 03:52:02;;;;;;;;;;;;;;;;;;5073878;28;19953;-61
2023/11/15 03:54:28;;;;;;;;;;;;;;;;;;5074118;28;19913;-61
2023/11/15 03:56:54;;;;;;;;;;;;;;;;;;5072695;28;19993;-61
2023/11/15 03:59:20;;;;;;;;;;;;;;;;;;5088637;28;19919;-61
2023/11/15 04:01:48;;;;;;;;;;;;;;;;;;5073857;28;19948;-61
2023/11/15 04:04:14;;;;;;;;;;;;;;;;;;5085193;28;19920;-64
2023/11/15 04:06:40;;;;;;;;;;;;;;;;;;5076867;28;19916;-64
2023/11/15 04:09:07;;;;;;;;;;;;;;;;;;5079871;28;19999;-64
2023/11/15 04:11:33;;;;;;;;;;;;;;;;;;5074060;28;19912;-64
2023/11/15 04:13:59;;;;;;;;;;;;;;;;;;5070989;28;20359;-64
2023/11/15 04:16:25;;;;;;;;;;;;;;;;;;5069187;28;19922;-64
2023/11/15 04:18:51;;;;;;;;;;;;;;;;;;5074378;28;20380;-65
2023/11/15 04:21:17;;;;;;;;;;;;;;;;;;5072658;28;20292;-64
2023/11/15 04:23:44;;;;;;;;;;;;;;;;;;5068857;28;19955;-64
2023/11/15 04:26:11;;;;;;;;;;;;;;;;;;5067776;28;19940;-64
2023/11/15 04:28:37;;;;;;;;;;;;;;;;;;5072284;28;19913;-65
2023/11/15 04:31:03;;;;;;;;;;;;;;;;;;5070269;28;19944;-64
2023/11/15 04:33:29;;;;;;;;;;;;;;;;;;5073189;28;20368;-64
2023/11/15 04:35:54;;;;;;;;;;;;;;;;;;5069842;28;19918;-64
2023/11/15 04:38:21;;;;;;;;;;;;;;;;;;5074143;28;20322;-64
2023/11/15 04:40:47;;;;;;;;;;;;;;;;;;5073916;28;20295;-64
2023/11/15 04:43:13;;;;;;;;;;;;;;;;;;5071320;28;19948;-64
2023/11/15 04:45:38;;;;;;;;;;;;;;;;;;5073706;28;19996;-64
2023/11/15 04:48:04;;;;;;;;;;;;;;;;;;5061547;28;20078;-64
2023/11/15 04:50:30;;;;;;;;;;;;;;;;;;5067199;28;19920;-64
2023/11/15 04:52:56;;;;;;;;;;;;;;;;;;5072520;28;19920;-64
2023/11/15 04:55:22;;;;;;;;;;;;;;;;;;5062922;28;19913;-64
2023/11/15 04:57:48;;;;;;;;;;;;;;;;;;5072757;28;19920;-64
2023/11/15 05:00:14;;;;;;;;;;;;;;;;;;5072696;28;20374;-64
2023/11/15 05:02:40;;;;;;;;;;;;;;;;;;5066889;28;19920;-64
2023/11/15 05:05:06;;;;;;;;;;;;;;;;;;5072470;28;19916;-64
2023/11/15 05:07:32;;;;;;;;;;;;;;;;;;5078342;28;20276;-65
2023/11/15 05:09:58;;;;;;;;;;;;;;;;;;5072407;28;19988;-64
2023/11/15 05:12:24;;;;;;;;;;;;;;;;;;5071506;28;20011;-65
2023/11/15 05:14:50;;;;;;;;;;;;;;;;;;5073192;28;20451;-65
2023/11/15 05:17:16;;;;;;;;;;;;;;;;;;5070721;28;20048;-65
2023/11/15 05:19:42;;;;;;;;;;;;;;;;;;5079173;28;19959;-65
2023/11/15 05:22:08;;;;;;;;;;;;;;;;;;5085287;28;20387;-65
2023/11/15 05:24:35;;;;;;;;;;;;;;;;;;5075537;28;19943;-65
2023/11/15 05:27:02;;;;;;;;;;;;;;;;;;5083187;28;19920;-65
2023/11/15 05:29:30;;;;;;;;;;;;;;;;;;5078185;28;19968;-65
2023/11/15 05:31:55;;;;;;;;;;;;;;;;;;5082458;28;20381;-66
2023/11/15 05:34:21;;;;;;;;;;;;;;;;;;5080606;28;19995;-65
2023/11/15 05:36:47;;;;;;;;;;;;;;;;;;5090433;28;19920;-65
2023/11/15 05:39:13;;;;;;;;;;;;;;;;;;5074231;28;20387;-65
2023/11/15 05:41:39;;;;;;;;;;;;;;;;;;5085641;28;19908;-65
2023/11/15 05:44:05;;;;;;;;;;;;;;;;;;5092970;28;20362;-65
2023/11/15 05:46:33;;;;;;;;;;;;;;;;;;5093300;28;20003;-65
2023/11/15 05:48:59;;;;;;;;;;;;;;;;;;5085866;28;19912;-65
2023/11/15 05:51:25;;;;;;;;;;;;;;;;;;5060376;28;19917;-65
2023/11/15 05:53:51;;;;;;;;;;;;;;;;;;5090942;28;19995;-65
2023/11/15 05:56:17;;;;;;;;;;;;;;;;;;5073703;28;19951;-65
2023/11/15 05:58:43;;;;;;;;;;;;;;;;;;5066733;28;20406;-65
2023/11/15 06:01:11;;;;;;;;;;;;;;;;;;5072454;28;20037;-65
2023/11/15 06:03:37;;;;;;;;;;;;;;;;;;5076071;28;20304;-65
2023/11/15 06:06:03;;;;;;;;;;;;;;;;;;5072633;28;19948;-64
2023/11/15 06:08:28;;;;;;;;;;;;;;;;;;5077764;28;20288;-65
2023/11/15 06:10:54;;;;;;;;;;;;;;;;;;5081939;28;20011;-65
2023/11/15 06:13:20;;;;;;;;;;;;;;;;;;5072024;28;20269;-64
2023/11/15 06:15:46;;;;;;;;;;;;;;;;;;5060512;28;19919;-64
2023/11/15 06:18:12;;;;;;;;;;;;;;;;;;5074032;28;20450;-64
2023/11/15 06:20:38;;;;;;;;;;;;;;;;;;5070652;28;19916;-64
2023/11/15 06:23:04;;;;;;;;;;;;;;;;;;5080457;28;19950;-61
2023/11/15 06:25:32;;;;;;;;;;;;;;;;;;5092703;28;19927;-64
2023/11/15 06:27:58;;;;;;;;;;;;;;;;;;5073742;28;19913;-62
2023/11/15 06:30:24;;;;;;;;;;;;;;;;;;5086491;28;20364;-62
2023/11/15 06:32:50;;;;;;;;;;;;;;;;;;5079838;28;19912;-61
2023/11/15 06:35:19;;;;;;;;;;;;;;;;;;5073588;28;20036;-61
2023/11/15 06:37:46;;;;;;;;;;;;;;;;;;5082763;28;20003;-62
2023/11/15 06:40:13;;;;;;;;;;;;;;;;;;5096616;28;19908;-62
2023/11/15 06:42:40;;;;;;;;;;;;;;;;;;5084102;28;19913;-62
2023/11/15 06:45:06;;;;;;;;;;;;;;;;;;5081248;28;19977;-61
2023/11/15 06:47:32;;;;;;;;;;;;;;;;;;5082670;28;19912;-62
2023/11/15 06:49:58;;;;;;;;;;;;;;;;;;5096366;28;19914;-62
2023/11/15 06:52:25;;;;;;;;;;;;;;;;;;5085172;28;20244;-61
2023/11/15 06:54:52;;;;;;;;;;;;;;;;;;5078568;28;19913;-62
2023/11/15 06:57:19;;;;;;;;;;;;;;;;;;5092034;28;20003;-62
2023/11/15 06:59:45;;;;;;;;;;;;;;;;;;5084627;28;20385;-62
2023/11/15 07:02:11;;;;;;;;;;;;;;;;;;5093039;28;19952;-62
2023/11/15 07:04:37;;;;;;;;;;;;;;;;;;5081786;28;19966;-62
2023/11/15 07:07:03;;;;;;;;;;;;;;;;;;5074950;28;19952;-62
2023/11/15 07:09:29;;;;;;;;;;;;;;;;;;5090302;28;19912;-62
2023/11/15 07:11:56;;;;;;;;;;;;;;;;;;5075790;28;19958;-62
2023/11/15 07:14:23;;;;;;;;;;;;;;;;;;5087729;28;20460;-62
2023/11/15 07:16:54;;;;;;;;;;;;;;;;;;5083444;28;19931;-62
2023/11/15 07:19:20;;;;;;;;;;;;;;;;;;5078444;28;19986;-62
2023/11/15 07:21:45;;;;;;;;;;;;;;;;;;5087013;28;20104;-62
2023/11/15 07:24:12;;;;;;;;;;;;;;;;;;5071941;28;19975;-64
2023/11/15 07:26:38;;;;;;;;;;;;;;;;;;5083989;28;20281;-65
2023/11/15 07:29:06;;;;;;;;;;;;;;;;;;5083119;28;19948;-65
2023/11/15 07:31:32;;;;;;;;;;;;;;;;;;5094020;28;19923;-64
2023/11/15 07:33:59;;;;;;;;;;;;;;;;;;5094990;28;19986;-62
2023/11/15 07:36:27;;;;;;;;;;;;;;;;;;5075489;28;19924;-62
2023/11/15 07:38:54;;;;;;;;;;;;;;;;;;5091740;28;20360;-62
2023/11/15 07:41:20;;;;;;;;;;;;;;;;;;5095028;28;19931;-62
2023/11/15 07:43:46;;;;;;;;;;;;;;;;;;5094488;28;20359;-62
2023/11/15 07:46:12;;;;;;;;;;;;;;;;;;5084205;28;19920;-62
2023/11/15 07:48:39;;;;;;;;;;;;;;;;;;5087382;28;19908;-62
2023/11/15 07:51:05;;;;;;;;;;;;;;;;;;5084620;28;19913;-62
2023/11/15 07:53:32;;;;;;;;;;;;;;;;;;5091377;28;20364;-62
2023/11/15 07:55:58;;;;;;;;;;;;;;;;;;5091735;28;19962;-62
2023/11/15 07:58:25;;;;;;;;;;;;;;;;;;5086082;28;19916;-62
2023/11/15 08:00:50;;;;;;;;;;;;;;;;;;5094429;28;19919;-62
2023/11/15 08:03:19;;;;;;;;;;;;;;;;;;5093213;28;19912;-62
2023/11/15 08:05:47;;;;;;;;;;;;;;;;;;5093788;28;20271;-62
2023/11/15 08:08:13;;;;;;;;;;;;;;;;;;5089933;28;20292;-62
2023/11/15 08:10:43;;;;;;;;;;;;;;;;;;5094382;28;19912;-62
2023/11/15 08:13:09;;;;;;;;;;;;;;;;;;5080626;28;20443;-62
2023/11/15 08:15:36;;;;;;;;;;;;;;;;;;5094308;28;19916;-62
2023/11/15 08:18:02;;;;;;;;;;;;;;;;;;5075938;28;20393;-63
2023/11/15 08:20:28;;;;;;;;;;;;;;;;;;5086092;28;19937;-62
2023/11/15 08:22:54;;;;;;;;;;;;;;;;;;5094117;28;20315;-62
2023/11/15 08:25:20;;;;;;;;;;;;;;;;;;5092280;28;20373;-62
2023/11/15 08:27:46;;;;;;;;;;;;;;;;;;5077041;28;19923;-62
2023/11/15 08:30:17;;;;;;;;;;;;;;;;;;5086093;28;20061;-63
2023/11/15 08:32:43;;;;;;;;;;;;;;;;;;5094175;28;20280;-62
2023/11/15 08:35:14;;;;;;;;;;;;;;;;;;5081317;28;19909;-65
2023/11/15 08:37:40;;;;;;;;;;;;;;;;;;5074526;28;20364;-65
2023/11/15 08:40:06;;;;;;;;;;;;;;;;;;5093563;28;20007;-65
2023/11/15 08:42:32;;;;;;;;;;;;;;;;;;5093860;28;19987;-65
2023/11/15 08:44:58;;;;;;;;;;;;;;;;;;5094039;28;19955;-65
2023/11/15 08:47:25;;;;;;;;;;;;;;;;;;5079607;28;19954;-65
2023/11/15 08:49:51;;;;;;;;;;;;;;;;;;5087020;28;19912;-64
2023/11/15 08:52:16;;;;;;;;;;;;;;;;;;5091565;28;19930;-64
2023/11/15 08:54:45;;;;;;;;;;;;;;;;;;5072782;28;19916;-64
2023/11/15 08:57:14;;;;;;;;;;;;;;;;;;5084427;28;19912;-64
2023/11/15 08:59:40;;;;;;;;;;;;;;;;;;5075229;28;19939;-64
2023/11/15 09:02:08;;;;;;;;;;;;;;;;;;5080634;28;20375;-64
2023/11/15 09:04:34;;;;;;;;;;;;;;;;;;5090172;28;19912;-64
2023/11/15 09:07:00;;;;;;;;;;;;;;;;;;5093163;28;19919;-64
2023/11/15 09:09:26;;;;;;;;;;;;;;;;;;5092238;28;19966;-64
2023/11/15 09:11:57;;;;;;;;;;;;;;;;;;5065175;28;19967;-64
2023/11/15 09:14:23;;;;;;;;;;;;;;;;;;5069795;28;19909;-64
2023/11/15 09:16:50;;;;;;;;;;;;;;;;;;5093145;28;20376;-64
2023/11/15 09:19:20;;;;;;;;;;;;;;;;;;5092976;28;19915;-64
2023/11/15 09:21:46;;;;;;;;;;;;;;;;;;5092730;28;19912;-64
2023/11/15 09:24:18;;;;;;;;;;;;;;;;;;5081974;28;19954;-64
2023/11/15 09:26:44;;;;;;;;;;;;;;;;;;5092684;28;19916;-64
2023/11/15 09:29:10;;;;;;;;;;;;;;;;;;5081545;28;20283;-65
2023/11/15 09:31:37;;;;;;;;;;;;;;;;;;5092789;28;19908;-64
2023/11/15 09:34:03;;;;;;;;;;;;;;;;;;5084138;28;20225;-64
2023/11/15 09:36:29;;;;;;;;;;;;;;;;;;5088911;28;19960;-64
2023/11/15 09:38:56;;;;;;;;;;;;;;;;;;5090543;28;19916;-65
2023/11/15 09:41:22;;;;;;;;;;;;;;;;;;5090960;28;19920;-64
2023/11/15 09:43:50;;;;;;;;;;;;;;;;;;5086537;28;19927;-64
2023/11/15 09:46:17;;;;;;;;;;;;;;;;;;5091745;28;20360;-64
2023/11/15 09:48:43;;;;;;;;;;;;;;;;;;5079926;28;19912;-64
2023/11/15 09:51:11;;;;;;;;;;;;;;;;;;5092711;28;19915;-65
2023/11/15 09:53:37;;;;;;;;;;;;;;;;;;5077723;28;20272;-65
2023/11/15 09:56:04;;;;;;;;;;;;;;;;;;5092450;28;19949;-64
2023/11/15 09:58:30;;;;;;;;;;;;;;;;;;5085090;28;19914;-64
2023/11/15 10:00:56;;;;;;;;;;;;;;;;;;5072166;28;19908;-64
2023/11/15 10:03:22;;;;;;;;;;;;;;;;;;5084710;28;19995;-64
2023/11/15 10:05:48;;;;;;;;;;;;;;;;;;5084055;28;19999;-64
2023/11/15 10:08:17;;;;;;;;;;;;;;;;;;5092120;28;19914;-64
2023/11/15 10:10:43;;;;;;;;;;;;;;;;;;5091654;28;19911;-64
2023/11/15 10:13:09;;;;;;;;;;;;;;;;;;5061344;28;20000;-64
2023/11/15 10:15:36;;;;;;;;;;;;;;;;;;5083980;28;20370;-64
2023/11/15 10:18:03;;;;;;;;;;;;;;;;;;5091825;28;19908;-64
2023/11/15 10:20:30;;;;;;;;;;;;;;;;;;5087000;28;20329;-64
2023/11/15 10:22:57;;;;;;;;;;;;;;;;;;5088471;28;20368;-64
2023/11/15 10:25:25;;;;;;;;;;;;;;;;;;5070504;28;19916;-64
2023/11/15 10:27:51;;;;;;;;;;;;;;;;;;5075514;28;20295;-64
2023/11/15 10:30:20;;;;;;;;;;;;;;;;;;5083908;28;19951;-64
2023/11/15 10:32:46;;;;;;;;;;;;;;;;;;5091987;28;20017;-64
2023/11/15 10:35:12;;;;;;;;;;;;;;;;;;5068741;28;19973;-64
2023/11/15 10:37:38;;;;;;;;;;;;;;;;;;5091792;28;19951;-64
2023/11/15 10:40:04;;;;;;;;;;;;;;;;;;5078260;28;19916;-64
2023/11/15 10:42:34;;;;;;;;;;;;;;;;;;5065171;28;20225;-64
2023/11/15 10:45:07;;;;;;;;;;;;;;;;;;5091470;28;19916;-64
2023/11/15 10:47:33;;;;;;;;;;;;;;;;;;5090546;28;20645;-64
2023/11/15 10:50:00;;;;;;;;;;;;;;;;;;5080752;28;19948;-64
2023/11/15 10:52:26;;;;;;;;;;;;;;;;;;5090789;28;19923;-64
2023/11/15 10:54:52;;;;;;;;;;;;;;;;;;5091733;28;20356;-64
2023/11/15 10:57:18;;;;;;;;;;;;;;;;;;5090228;28;19972;-64
2023/11/15 10:59:47;;;;;;;;;;;;;;;;;;5077541;28;19928;-65
2023/11/15 11:02:13;;;;;;;;;;;;;;;;;;5087860;28;19949;-64
2023/11/15 11:04:39;;;;;;;;;;;;;;;;;;5086262;28;19959;-63
2023/11/15 11:07:07;;;;;;;;;;;;;;;;;;5091526;28;20057;-63
2023/11/15 11:09:34;;;;;;;;;;;;;;;;;;5082373;28;19939;-62
2023/11/15 11:12:00;;;;;;;;;;;;;;;;;;5062349;28;19909;-64
2023/11/15 11:14:27;;;;;;;;;;;;;;;;;;5077767;28;19919;-62
2023/11/15 11:16:53;;;;;;;;;;;;;;;;;;5091375;28;19961;-63
2023/11/15 11:19:25;;;;;;;;;;;;;;;;;;5087415;28;19948;-62
2023/11/15 11:21:51;;;;;;;;;;;;;;;;;;5091549;28;19925;-61
2023/11/15 11:24:18;;;;;;;;;;;;;;;;;;5094313;28;19952;-61
2023/11/15 11:26:45;;;;;;;;;;;;;;;;;;5094827;28;19928;-61
2023/11/15 11:29:12;;;;;;;;;;;;;;;;;;5079788;28;19912;-63
2023/11/15 11:31:38;;;;;;;;;;;;;;;;;;5085150;28;20030;-64
2023/11/15 11:34:04;;;;;;;;;;;;;;;;;;5095041;28;20056;-64
2023/11/15 11:36:31;;;;;;;;;;;;;;;;;;5095257;28;19909;-63
2023/11/15 11:38:57;;;;;;;;;;;;;;;;;;5094129;28;19908;-64
2023/11/15 11:41:26;;;;;;;;;;;;;;;;;;5084568;28;19918;-63
2023/11/15 11:43:51;;;;;;;;;;;;;;;;;;5094955;28;19916;-63
2023/11/15 11:46:18;;;;;;;;;;;;;;;;;;5091889;28;19911;-63
2023/11/15 11:48:44;;;;;;;;;;;;;;;;;;5092807;28;19908;-63
2023/11/15 11:51:10;;;;;;;;;;;;;;;;;;5094857;28;19915;-63
2023/11/15 11:53:37;;;;;;;;;;;;;;;;;;5094585;28;19915;-64
2023/11/15 11:56:03;;;;;;;;;;;;;;;;;;5088904;28;20350;-61
2023/11/15 11:58:29;;;;;;;;;;;;;;;;;;5081048;28;19944;-63
2023/11/15 12:00:55;;;;;;;;;;;;;;;;;;5094653;28;19908;-63
2023/11/15 12:03:21;;;;;;;;;;;;;;;;;;5083054;28;19920;-64
2023/11/15 12:05:47;;;;;;;;;;;;;;;;;;5090027;28;20025;-64
2023/11/15 12:08:14;;;;;;;;;;;;;;;;;;5094349;28;19969;-64
2023/11/15 12:10:40;;;;;;;;;;;;;;;;;;5093280;28;20386;-65
2023/11/15 12:13:07;;;;;;;;;;;;;;;;;;5081925;28;19998;-63
2023/11/15 12:15:33;;;;;;;;;;;;;;;;;;5084213;28;20224;-63
2023/11/15 12:17:59;;;;;;;;;;;;;;;;;;5089334;28;19912;-63
2023/11/15 12:20:25;;;;;;;;;;;;;;;;;;5075101;28;19924;-64
2023/11/15 12:22:51;;;;;;;;;;;;;;;;;;5093994;28;20376;-63
2023/11/15 12:25:17;;;;;;;;;;;;;;;;;;5086100;28;19924;-64
2023/11/15 12:27:43;;;;;;;;;;;;;;;;;;5090975;28;19909;-64
2023/11/15 12:30:09;;;;;;;;;;;;;;;;;;5088485;28;20011;-63
2023/11/15 12:32:36;;;;;;;;;;;;;;;;;;5086898;28;19927;-63
2023/11/15 12:35:05;;;;;;;;;;;;;;;;;;5085181;28;19920;-62
2023/11/15 12:37:32;;;;;;;;;;;;;;;;;;5082006;28;20364;-63
2023/11/15 12:39:58;;;;;;;;;;;;;;;;;;5093749;28;20244;-63
2023/11/15 12:42:24;;;;;;;;;;;;;;;;;;5091980;28;19912;-62
2023/11/15 12:44:50;;;;;;;;;;;;;;;;;;5084616;28;19948;-63
2023/11/15 12:47:16;;;;;;;;;;;;;;;;;;5085238;28;20347;-63
2023/11/15 12:49:42;;;;;;;;;;;;;;;;;;5088429;28;19961;-63
2023/11/15 12:52:08;;;;;;;;;;;;;;;;;;5093476;28;20348;-63
2023/11/15 12:54:35;;;;;;;;;;;;;;;;;;5070617;28;20000;-63
2023/11/15 12:57:02;;;;;;;;;;;;;;;;;;5081949;28;19951;-63
2023/11/15 12:59:28;;;;;;;;;;;;;;;;;;5091036;28;19908;-61
2023/11/15 13:01:54;;;;;;;;;;;;;;;;;;5075367;28;20387;-63
2023/11/15 13:04:22;;;;;;;;;;;;;;;;;;5079104;28;19958;-63
2023/11/15 13:06:49;;;;;;;;;;;;;;;;;;5093187;28;19964;-63
2023/11/15 13:09:16;;;;;;;;;;;;;;;;;;5092138;28;19916;-62
2023/11/15 13:11:42;;;;;;;;;;;;;;;;;;5085431;28;19917;-63
2023/11/15 13:14:08;;;;;;;;;;;;;;;;;;5072716;28;20445;-64
2023/11/15 13:16:34;;;;;;;;;;;;;;;;;;5092958;28;20705;-64
2023/11/15 13:19:01;;;;;;;;;;;;;;;;;;5071619;28;20038;-64
2023/11/15 13:21:29;;;;;;;;;;;;;;;;;;5079412;28;20336;-64
2023/11/15 13:23:55;;;;;;;;;;;;;;;;;;5075610;28;19968;-63
2023/11/15 13:26:23;;;;;;;;;;;;;;;;;;5072283;28;19916;-63
2023/11/15 13:28:49;;;;;;;;;;;;;;;;;;5070007;28;20300;-63
2023/11/15 13:31:15;;;;;;;;;;;;;;;;;;5065622;28;19917;-63
2023/11/15 13:33:47;;;;;;;;;;;;;;;;;;5070580;28;19956;-63
2023/11/15 13:36:13;;;;;;;;;;;;;;;;;;5073002;28;19918;-63
2023/11/15 13:38:39;;;;;;;;;;;;;;;;;;5072369;28;19912;-63
2023/11/15 13:41:08;;;;;;;;;;;;;;;;;;5075449;28;20395;-63
2023/11/15 13:43:36;;;;;;;;;;;;;;;;;;5071147;28;20025;-63
2023/11/15 13:46:04;;;;;;;;;;;;;;;;;;5070361;28;19999;-63
2023/11/15 13:48:30;;;;;;;;;;;;;;;;;;5080185;28;20376;-63
2023/11/15 13:50:56;;;;;;;;;;;;;;;;;;5069686;28;19942;-63
2023/11/15 13:53:22;;;;;;;;;;;;;;;;;;5082743;28;19943;-63
2023/11/15 13:55:47;;;;;;;;;;;;;;;;;;5086760;28;19999;-63
2023/11/15 13:58:13;;;;;;;;;;;;;;;;;;5073074;28;19913;-63
2023/11/15 14:00:41;;;;;;;;;;;;;;;;;;5077050;28;20015;-63
2023/11/15 14:03:07;;;;;;;;;;;;;;;;;;5063434;28;19916;-63
2023/11/15 14:05:33;;;;;;;;;;;;;;;;;;5073140;28;19940;-63
2023/11/15 14:07:59;;;;;;;;;;;;;;;;;;5084411;28;20040;-63
2023/11/15 14:10:27;;;;;;;;;;;;;;;;;;5076498;28;19963;-63
2023/11/15 14:12:53;;;;;;;;;;;;;;;;;;5072606;28;19912;-63
2023/11/15 14:15:21;;;;;;;;;;;;;;;;;;5072502;28;19966;-63
2023/11/15 14:17:48;;;;;;;;;;;;;;;;;;5062911;28;19962;-63
2023/11/15 14:20:18;;;;;;;;;;;;;;;;;;5085881;28;19916;-63
2023/11/15 14:22:44;;;;;;;;;;;;;;;;;;5087398;28;19985;-63
2023/11/15 14:25:20;;;;;;;;;;;;;;;;;;5075003;28;19916;-63
2023/11/15 14:27:46;;;;;;;;;;;;;;;;;;5087508;28;19924;-64
2023/11/15 14:30:11;;;;;;;;;;;;;;;;;;5076062;28;20433;-64
2023/11/15 14:32:37;;;;;;;;;;;;;;;;;;5070281;28;19947;-64
2023/11/15 14:35:08;;;;;;;;;;;;;;;;;;5071967;28;20284;-64
2023/11/15 14:37:34;;;;;;;;;;;;;;;;;;5085081;28;19916;-64
2023/11/15 14:40:00;;;;;;;;;;;;;;;;;;5067296;28;20000;-64
2023/11/15 14:42:26;;;;;;;;;;;;;;;;;;5066254;28;20365;-64
2023/11/15 14:44:52;;;;;;;;;;;;;;;;;;5066860;28;19920;-64
2023/11/15 14:47:19;;;;;;;;;;;;;;;;;;5078967;28;19912;-64
2023/11/15 14:49:45;;;;;;;;;;;;;;;;;;5083765;28;19927;-64
2023/11/15 14:52:12;;;;;;;;;;;;;;;;;;5073441;28;20364;-64
2023/11/15 14:54:42;;;;;;;;;;;;;;;;;;5068831;28;19959;-64
2023/11/15 14:57:09;;;;;;;;;;;;;;;;;;5079326;28;19923;-64
2023/11/15 14:59:35;;;;;;;;;;;;;;;;;;5076848;28;19934;-64
2023/11/15 15:02:01;;;;;;;;;;;;;;;;;;5074269;28;20058;-64
2023/11/15 15:04:28;;;;;;;;;;;;;;;;;;5062477;28;20264;-64
2023/11/15 15:06:54;;;;;;;;;;;;;;;;;;5077808;28;19955;-64
2023/11/15 15:09:20;;;;;;;;;;;;;;;;;;5094888;28;19935;-64
2023/11/15 15:11:46;;;;;;;;;;;;;;;;;;5087215;28;19915;-64
2023/11/15 15:14:17;;;;;;;;;;;;;;;;;;5087889;28;19918;-64
2023/11/15 15:16:43;;;;;;;;;;;;;;;;;;5093533;28;20264;-64
2023/11/15 15:19:09;;;;;;;;;;;;;;;;;;5069752;28;20423;-64
2023/11/15 15:21:35;;;;;;;;;;;;;;;;;;5094948;28;20000;-64
2023/11/15 15:24:00;;;;;;;;;;;;;;;;;;5089166;28;20012;-64
2023/11/15 15:26:26;;;;;;;;;;;;;;;;;;5078939;28;20010;-64
2023/11/15 15:28:53;;;;;;;;;;;;;;;;;;5076065;28;20325;-64
2023/11/15 15:31:19;;;;;;;;;;;;;;;;;;5060894;28;19913;-64
2023/11/15 15:33:45;;;;;;;;;;;;;;;;;;5066931;28;20308;-62
2023/11/15 15:36:13;;;;;;;;;;;;;;;;;;5089669;28;21650;-64
2023/11/15 15:38:38;;;;;;;;;;;;;;;;;;5089260;28;19982;-64
2023/11/15 15:41:04;;;;;;;;;;;;;;;;;;5095642;28;20299;-64
2023/11/15 15:43:30;;;;;;;;;;;;;;;;;;5095757;28;19954;-63
2023/11/15 15:45:56;;;;;;;;;;;;;;;;;;5092353;28;19915;-65
2023/11/15 15:48:25;;;;;;;;;;;;;;;;;;5077757;28;20006;-63
2023/11/15 15:50:54;;;;;;;;;;;;;;;;;;5083388;28;19919;-63
2023/11/15 15:53:21;;;;;;;;;;;;;;;;;;5088885;28;19938;-63
2023/11/15 15:55:47;;;;;;;;;;;;;;;;;;5072288;28;19958;-62
2023/11/15 15:58:15;;;;;;;;;;;;;;;;;;5082702;28;20288;-63
2023/11/15 16:00:41;;;;;;;;;;;;;;;;;;5071380;28;19923;-63
2023/11/15 16:03:07;;;;;;;;;;;;;;;;;;5091054;28;19997;-62
2023/11/15 16:05:33;;;;;;;;;;;;;;;;;;5095146;28;20014;-63
2023/11/15 16:07:58;;;;;;;;;;;;;;;;;;5086785;28;19912;-62
2023/11/15 16:10:24;;;;;;;;;;;;;;;;;;5093689;28;19920;-63
2023/11/15 16:12:51;;;;;;;;;;;;;;;;;;5057248;28;19956;-63
2023/11/15 16:15:18;;;;;;;;;;;;;;;;;;5079945;28;19912;-63
2023/11/15 16:17:44;;;;;;;;;;;;;;;;;;5077767;28;20352;-62
2023/11/15 16:20:11;;;;;;;;;;;;;;;;;;5087177;28;19982;-62
2023/11/15 16:22:37;;;;;;;;;;;;;;;;;;5073121;28;20448;-63
2023/11/15 16:25:04;;;;;;;;;;;;;;;;;;5086345;28;20338;-62
2023/11/15 16:27:30;;;;;;;;;;;;;;;;;;5072227;28;20007;-63
2023/11/15 16:29:56;;;;;;;;;;;;;;;;;;5083142;28;19951;-63
2023/11/15 16:32:23;;;;;;;;;;;;;;;;;;5083313;28;19912;-63
2023/11/15 16:34:49;;;;;;;;;;;;;;;;;;5085763;28;19995;-63
2023/11/15 16:37:15;;;;;;;;;;;;;;;;;;5080973;28;19951;-62
2023/11/15 16:39:41;;;;;;;;;;;;;;;;;;5074118;28;19995;-63